createdAt,value
2017-06-24T00:00:42.791Z,1005.3
2017-06-24T00:01:44.857Z,1005.3
2017-06-24T00:02:46.921Z,1005.3
2017-06-24T00:03:48.981Z,1005.2
2017-06-24T00:04:51.044Z,1005.2
2017-06-24T00:05:53.101Z,1005.2
2017-06-24T00:06:55.163Z,1005.2
2017-06-24T00:07:57.235Z,1005.2
2017-06-24T00:08:59.299Z,1005.2
2017-06-24T00:10:01.349Z,1005.2
2017-06-24T00:11:03.421Z,1005.1
2017-06-24T00:12:05.485Z,1005.1
2017-06-24T00:13:07.888Z,1005.1
2017-06-24T00:14:10.492Z,1005
2017-06-24T00:15:12.560Z,1005.1
2017-06-24T00:16:14.625Z,1005.2
2017-06-24T00:17:17.007Z,1005.2
2017-06-24T00:18:19.077Z,1005.2
2017-06-24T00:19:21.155Z,1005.2
2017-06-24T00:20:23.211Z,1005.2
2017-06-24T00:21:25.612Z,1005.1
2017-06-24T00:22:27.674Z,1005.1
2017-06-24T00:23:29.743Z,1005
2017-06-24T00:24:31.806Z,1005
2017-06-24T00:25:33.869Z,1005
2017-06-24T00:26:36.276Z,1005.1
2017-06-24T00:27:38.332Z,1005.1
2017-06-24T00:28:40.397Z,1005.1
2017-06-24T00:29:42.809Z,1005.1
2017-06-24T00:30:45.205Z,1005.1
2017-06-24T00:31:47.297Z,1005.1
2017-06-24T00:32:49.358Z,1005.1
2017-06-24T00:33:51.621Z,1005.1
2017-06-24T00:34:53.696Z,1005
2017-06-24T00:35:56.096Z,1005
2017-06-24T00:36:58.158Z,1005
2017-06-24T00:38:00.223Z,1005
2017-06-24T00:39:02.298Z,1004.9
2017-06-24T00:40:04.363Z,1005
2017-06-24T00:41:06.801Z,1005
2017-06-24T00:42:08.874Z,1005
2017-06-24T00:43:11.296Z,1005
2017-06-24T00:44:13.731Z,1005.1
2017-06-24T00:45:15.798Z,1005.1
2017-06-24T00:46:17.855Z,1005.1
2017-06-24T00:47:19.924Z,1005.1
2017-06-24T00:48:21.990Z,1005.1
2017-06-24T00:49:24.051Z,1005.1
2017-06-24T00:50:26.103Z,1005.1
2017-06-24T00:51:28.180Z,1005.1
2017-06-24T00:52:30.241Z,1005.1
2017-06-24T00:53:32.311Z,1005
2017-06-24T00:54:34.398Z,1005.1
2017-06-24T00:55:36.467Z,1005.1
2017-06-24T00:56:38.538Z,1005.1
2017-06-24T00:57:40.585Z,1005.1
2017-06-24T00:58:43.038Z,1005.1
2017-06-24T00:59:45.453Z,1005
2017-06-24T01:00:47.518Z,1005
2017-06-24T01:01:49.575Z,1005
2017-06-24T01:02:51.643Z,1005
2017-06-24T01:03:54.390Z,1005
2017-06-24T01:04:56.445Z,1005
2017-06-24T01:05:58.505Z,1005
2017-06-24T01:07:00.572Z,1005
2017-06-24T01:08:02.629Z,1004.9
2017-06-24T01:09:04.703Z,1004.8
2017-06-24T01:10:06.762Z,1004.8
2017-06-24T01:11:08.837Z,1004.8
2017-06-24T01:12:10.889Z,1004.8
2017-06-24T01:13:12.958Z,1004.8
2017-06-24T01:14:15.020Z,1004.7
2017-06-24T01:15:17.086Z,1004.7
2017-06-24T01:16:19.487Z,1004.7
2017-06-24T01:17:21.889Z,1004.7
2017-06-24T01:18:23.954Z,1004.7
2017-06-24T01:19:26.028Z,1004.7
2017-06-24T01:20:28.425Z,1004.7
2017-06-24T01:21:30.494Z,1004.6
2017-06-24T01:22:32.561Z,1004.6
2017-06-24T01:23:34.962Z,1004.6
2017-06-24T01:24:37.033Z,1004.7
2017-06-24T01:25:39.099Z,1004.7
2017-06-24T01:26:41.157Z,1004.8
2017-06-24T01:27:44.109Z,1004.8
2017-06-24T01:28:46.175Z,1004.8
2017-06-24T01:29:48.240Z,1004.8
2017-06-24T01:30:50.296Z,1004.8
2017-06-24T01:31:52.701Z,1004.8
2017-06-24T01:32:54.779Z,1004.9
2017-06-24T01:33:57.178Z,1004.9
2017-06-24T01:34:59.246Z,1005
2017-06-24T01:36:01.308Z,1004.9
2017-06-24T01:37:03.370Z,1004.8
2017-06-24T01:38:05.427Z,1004.8
2017-06-24T01:39:07.832Z,1004.9
2017-06-24T01:40:09.905Z,1004.9
2017-06-24T01:41:11.966Z,1004.8
2017-06-24T01:42:14.378Z,1004.8
2017-06-24T01:43:16.443Z,1004.7
2017-06-24T01:44:18.494Z,1004.8
2017-06-24T01:45:20.918Z,1004.8
2017-06-24T01:46:23.322Z,1004.8
2017-06-24T01:47:25.387Z,1004.8
2017-06-24T01:48:27.450Z,1004.8
2017-06-24T01:49:29.514Z,1004.8
2017-06-24T01:50:31.575Z,1004.7
2017-06-24T01:51:33.633Z,1004.7
2017-06-24T01:52:35.716Z,1004.7
2017-06-24T01:53:37.783Z,1004.7
2017-06-24T01:54:39.831Z,1004.7
2017-06-24T01:55:42.236Z,1004.7
2017-06-24T01:56:44.636Z,1004.7
2017-06-24T01:57:46.707Z,1004.6
2017-06-24T01:58:48.766Z,1004.6
2017-06-24T01:59:50.831Z,1004.6
2017-06-24T02:00:52.900Z,1004.8
2017-06-24T02:01:55.307Z,1004.8
2017-06-24T02:02:57.373Z,1004.7
2017-06-24T02:03:59.768Z,1004.8
2017-06-24T02:05:01.833Z,1004.8
2017-06-24T02:06:03.921Z,1004.8
2017-06-24T02:07:05.972Z,1004.8
2017-06-24T02:08:08.036Z,1004.8
2017-06-24T02:09:10.098Z,1004.7
2017-06-24T02:10:12.174Z,1004.7
2017-06-24T02:11:14.231Z,1004.7
2017-06-24T02:12:16.302Z,1004.7
2017-06-24T02:13:18.379Z,1004.8
2017-06-24T02:14:20.452Z,1004.8
2017-06-24T02:15:22.837Z,1004.8
2017-06-24T02:16:25.239Z,1004.8
2017-06-24T02:17:27.318Z,1004.8
2017-06-24T02:18:29.386Z,1004.8
2017-06-24T02:19:31.793Z,1004.8
2017-06-24T02:20:33.864Z,1004.8
2017-06-24T02:21:35.923Z,1004.8
2017-06-24T02:22:37.988Z,1004.7
2017-06-24T02:23:40.051Z,1004.7
2017-06-24T02:24:42.463Z,1004.7
2017-06-24T02:25:44.531Z,1004.7
2017-06-24T02:26:46.604Z,1004.7
2017-06-24T02:27:49.026Z,1004.7
2017-06-24T02:28:51.084Z,1004.6
2017-06-24T02:29:53.145Z,1004.6
2017-06-24T02:30:55.219Z,1004.5
2017-06-24T02:31:57.277Z,1004.6
2017-06-24T02:32:59.345Z,1004.5
2017-06-24T02:34:01.411Z,1004.5
2017-06-24T02:35:03.465Z,1004.5
2017-06-24T02:36:05.532Z,1004.5
2017-06-24T02:37:07.604Z,1004.5
2017-06-24T02:38:09.666Z,1004.6
2017-06-24T02:39:11.728Z,1004.6
2017-06-24T02:40:14.126Z,1004.6
2017-06-24T02:41:16.393Z,1004.6
2017-06-24T02:42:18.455Z,1004.6
2017-06-24T02:43:20.527Z,1004.7
2017-06-24T02:44:22.582Z,1004.6
2017-06-24T02:45:24.661Z,1004.6
2017-06-24T02:46:27.089Z,1004.6
2017-06-24T02:47:29.157Z,1004.6
2017-06-24T02:48:31.220Z,1004.6
2017-06-24T02:49:33.293Z,1004.6
2017-06-24T02:50:35.703Z,1004.7
2017-06-24T02:51:37.785Z,1004.6
2017-06-24T02:52:39.844Z,1004.6
2017-06-24T02:53:41.921Z,1004.6
2017-06-24T02:54:43.976Z,1004.6
2017-06-24T02:55:46.049Z,1004.5
2017-06-24T02:56:48.102Z,1004.5
2017-06-24T02:57:50.501Z,1004.5
2017-06-24T02:58:52.561Z,1004.5
2017-06-24T02:59:54.624Z,1004.4
2017-06-24T03:00:56.699Z,1004.4
2017-06-24T03:01:58.762Z,1004.5
2017-06-24T03:03:00.818Z,1004.5
2017-06-24T03:04:02.891Z,1004.5
2017-06-24T03:05:04.954Z,1004.5
2017-06-24T03:06:07.022Z,1004.5
2017-06-24T03:07:09.092Z,1004.5
2017-06-24T03:08:11.491Z,1004.5
2017-06-24T03:09:13.560Z,1004.5
2017-06-24T03:10:15.950Z,1004.5
2017-06-24T03:11:18.226Z,1004.5
2017-06-24T03:12:20.291Z,1004.4
2017-06-24T03:13:22.354Z,1004.4
2017-06-24T03:14:24.757Z,1004.4
2017-06-24T03:15:26.822Z,1004.4
2017-06-24T03:16:28.885Z,1004.4
2017-06-24T03:17:30.962Z,1004.4
2017-06-24T03:18:33.036Z,1004.4
2017-06-24T03:19:35.080Z,1004.4
2017-06-24T03:20:37.149Z,1004.4
2017-06-24T03:21:39.563Z,1004.3
2017-06-24T03:22:41.624Z,1004.4
2017-06-24T03:23:44.042Z,1004.4
2017-06-24T03:24:46.106Z,1004.3
2017-06-24T03:25:48.545Z,1004.3
2017-06-24T03:26:50.602Z,1004.3
2017-06-24T03:27:52.658Z,1004.3
2017-06-24T03:28:54.735Z,1004.2
2017-06-24T03:29:56.815Z,1004.2
2017-06-24T03:30:58.878Z,1004.2
2017-06-24T03:32:00.938Z,1004.3
2017-06-24T03:33:03.009Z,1004.2
2017-06-24T03:34:05.082Z,1004.2
2017-06-24T03:35:07.148Z,1004.3
2017-06-24T03:36:09.222Z,1004.3
2017-06-24T03:37:11.297Z,1004.2
2017-06-24T03:38:13.363Z,1004.2
2017-06-24T03:39:15.424Z,1004.2
2017-06-24T03:40:17.482Z,1004.3
2017-06-24T03:41:19.897Z,1004.2
2017-06-24T03:42:21.953Z,1004.2
2017-06-24T03:43:24.028Z,1004.2
2017-06-24T03:44:26.094Z,1004.1
2017-06-24T03:45:28.188Z,1004.2
2017-06-24T03:46:30.244Z,1004.1
2017-06-24T03:47:32.647Z,1004.2
2017-06-24T03:48:34.718Z,1004.1
2017-06-24T03:49:36.794Z,1004.1
2017-06-24T03:50:39.175Z,1004.1
2017-06-24T03:51:41.260Z,1004.1
2017-06-24T03:52:43.687Z,1004.2
2017-06-24T03:53:45.764Z,1004.1
2017-06-24T03:54:47.839Z,1004.1
2017-06-24T03:55:50.252Z,1004.1
2017-06-24T03:56:52.316Z,1004
2017-06-24T03:57:54.380Z,1004.1
2017-06-24T03:58:56.651Z,1004.1
2017-06-24T03:59:58.731Z,1004.1
2017-06-24T04:01:00.785Z,1004.1
2017-06-24T04:02:02.857Z,1004.1
2017-06-24T04:03:04.927Z,1004
2017-06-24T04:04:07.005Z,1004.1
2017-06-24T04:05:09.063Z,1004.1
2017-06-24T04:06:11.661Z,1004.2
2017-06-24T04:07:13.720Z,1004.1
2017-06-24T04:08:15.784Z,1004.1
2017-06-24T04:09:17.837Z,1004.1
2017-06-24T04:10:19.912Z,1004.1
2017-06-24T04:11:21.970Z,1004.1
2017-06-24T04:12:24.037Z,1004.1
2017-06-24T04:13:26.105Z,1004.1
2017-06-24T04:14:28.177Z,1004.1
2017-06-24T04:15:30.238Z,1004
2017-06-24T04:16:32.307Z,1004
2017-06-24T04:17:34.373Z,1004
2017-06-24T04:18:36.451Z,1004
2017-06-24T04:19:38.521Z,1004
2017-06-24T04:20:40.597Z,1004
2017-06-24T04:21:42.652Z,1004
2017-06-24T04:22:44.725Z,1003.9
2017-06-24T04:23:46.785Z,1004
2017-06-24T04:24:48.854Z,1004
2017-06-24T04:25:51.260Z,1004
2017-06-24T04:26:53.660Z,1004
2017-06-24T04:27:55.715Z,1004
2017-06-24T04:28:57.786Z,1004
2017-06-24T04:29:59.837Z,1004
2017-06-24T04:31:02.272Z,1004
2017-06-24T04:32:04.338Z,1004
2017-06-24T04:33:06.391Z,1003.9
2017-06-24T04:34:08.465Z,1004
2017-06-24T04:35:10.524Z,1003.9
2017-06-24T04:36:12.589Z,1003.9
2017-06-24T04:37:14.652Z,1003.9
2017-06-24T04:38:16.722Z,1003.9
2017-06-24T04:39:18.805Z,1003.8
2017-06-24T04:40:20.859Z,1003.9
2017-06-24T04:41:22.925Z,1003.9
2017-06-24T04:42:25.004Z,1003.9
2017-06-24T04:43:27.070Z,1003.8
2017-06-24T04:44:29.481Z,1003.8
2017-06-24T04:45:31.550Z,1003.9
2017-06-24T04:46:33.613Z,1003.8
2017-06-24T04:47:35.677Z,1003.9
2017-06-24T04:48:37.735Z,1003.8
2017-06-24T04:49:39.817Z,1003.8
2017-06-24T04:50:41.889Z,1003.8
2017-06-24T04:51:44.291Z,1003.7
2017-06-24T04:52:46.360Z,1003.8
2017-06-24T04:53:48.415Z,1003.8
2017-06-24T04:54:50.486Z,1003.8
2017-06-24T04:55:52.552Z,1003.8
2017-06-24T04:56:54.623Z,1003.7
2017-06-24T04:57:56.694Z,1003.7
2017-06-24T04:58:59.277Z,1003.7
2017-06-24T05:00:01.353Z,1003.7
2017-06-24T05:01:03.794Z,1003.7
2017-06-24T05:02:05.858Z,1003.6
2017-06-24T05:03:07.931Z,1003.7
2017-06-24T05:04:09.992Z,1003.7
2017-06-24T05:05:12.060Z,1003.7
2017-06-24T05:06:14.229Z,1003.7
2017-06-24T05:07:16.646Z,1003.7
2017-06-24T05:08:18.976Z,1003.7
2017-06-24T05:09:21.259Z,1003.7
2017-06-24T05:10:23.332Z,1003.6
2017-06-24T05:11:25.419Z,1003.6
2017-06-24T05:12:27.506Z,1003.6
2017-06-24T05:13:29.561Z,1003.6
2017-06-24T05:14:31.643Z,1003.6
2017-06-24T05:15:33.723Z,1003.6
2017-06-24T05:16:35.791Z,1003.6
2017-06-24T05:17:37.869Z,1003.5
2017-06-24T05:18:39.953Z,1003.6
2017-06-24T05:19:42.034Z,1003.6
2017-06-24T05:20:44.092Z,1003.6
2017-06-24T05:21:46.159Z,1003.6
2017-06-24T05:22:48.288Z,1003.6
2017-06-24T05:23:50.379Z,1003.6
2017-06-24T05:24:52.448Z,1003.6
2017-06-24T05:25:54.529Z,1003.6
2017-06-24T05:26:56.606Z,1003.6
2017-06-24T05:27:58.678Z,1003.5
2017-06-24T05:29:01.010Z,1003.6
2017-06-24T05:30:03.103Z,1003.6
2017-06-24T05:31:05.200Z,1003.6
2017-06-24T05:32:08.239Z,1003.6
2017-06-24T05:33:12.652Z,1003.5
2017-06-24T05:34:15.100Z,1003.5
2017-06-24T05:35:17.681Z,1003.5
2017-06-24T05:36:19.834Z,1003.5
2017-06-24T05:37:22.113Z,1003.5
2017-06-24T05:38:25.817Z,1003.5
2017-06-24T05:39:30.189Z,1003.5
2017-06-24T05:40:32.793Z,1003.5
2017-06-24T05:41:35.167Z,1003.4
2017-06-24T05:42:37.257Z,1003.4
2017-06-24T05:43:39.395Z,1003.4
2017-06-24T05:44:41.476Z,1003.4
2017-06-24T05:45:43.562Z,1003.4
2017-06-24T05:46:45.666Z,1003.4
2017-06-24T05:47:47.732Z,1003.4
2017-06-24T05:48:49.813Z,1003.4
2017-06-24T05:49:52.052Z,1003.3
2017-06-24T05:50:54.311Z,1003.3
2017-06-24T05:51:56.824Z,1003.3
2017-06-24T05:53:00.128Z,1003.3
2017-06-24T05:54:02.768Z,1003.4
2017-06-24T05:55:05.375Z,1003.4
2017-06-24T05:56:07.660Z,1003.4
2017-06-24T05:57:09.803Z,1003.4
2017-06-24T05:58:12.051Z,1003.4
2017-06-24T05:59:14.501Z,1003.4
2017-06-24T06:00:18.480Z,1003.3
2017-06-24T06:01:20.551Z,1003.3
2017-06-24T06:02:22.715Z,1003.3
2017-06-24T06:03:25.143Z,1003.3
2017-06-24T06:04:27.200Z,1003.4
2017-06-24T06:05:29.291Z,1003.3
2017-06-24T06:06:31.363Z,1003.3
2017-06-24T06:07:33.446Z,1003.4
2017-06-24T06:08:35.525Z,1003.3
2017-06-24T06:09:37.603Z,1003.4
2017-06-24T06:10:40.015Z,1003.4
2017-06-24T06:11:42.134Z,1003.3
2017-06-24T06:12:44.190Z,1003.4
2017-06-24T06:13:46.279Z,1003.4
2017-06-24T06:14:48.351Z,1003.4
2017-06-24T06:15:50.433Z,1003.4
2017-06-24T06:16:52.505Z,1003.4
2017-06-24T06:17:54.691Z,1003.4
2017-06-24T06:18:56.771Z,1003.4
2017-06-24T06:19:59.267Z,1003.4
2017-06-24T06:21:01.341Z,1003.4
2017-06-24T06:22:03.443Z,1003.4
2017-06-24T06:23:05.745Z,1003.4
2017-06-24T06:24:07.837Z,1003.4
2017-06-24T06:25:09.936Z,1003.4
2017-06-24T06:26:12.018Z,1003.4
2017-06-24T06:27:14.614Z,1003.4
2017-06-24T06:28:16.682Z,1003.4
2017-06-24T06:29:18.779Z,1003.4
2017-06-24T06:30:21.191Z,1003.4
2017-06-24T06:31:23.274Z,1003.4
2017-06-24T06:32:25.357Z,1003.4
2017-06-24T06:33:27.451Z,1003.3
2017-06-24T06:34:30.209Z,1003.4
2017-06-24T06:35:32.288Z,1003.4
2017-06-24T06:36:34.406Z,1003.3
2017-06-24T06:37:36.492Z,1003.3
2017-06-24T06:38:38.556Z,1003.3
2017-06-24T06:39:40.635Z,1003.3
2017-06-24T06:40:42.699Z,1003.4
2017-06-24T06:41:44.769Z,1003.4
2017-06-24T06:42:47.222Z,1003.4
2017-06-24T06:43:49.637Z,1003.3
2017-06-24T06:44:51.715Z,1003.3
2017-06-24T06:45:53.770Z,1003.4
2017-06-24T06:46:55.860Z,1003.4
2017-06-24T06:47:58.474Z,1003.4
2017-06-24T06:49:00.530Z,1003.4
2017-06-24T06:50:02.600Z,1003.4
2017-06-24T06:51:04.681Z,1003.4
2017-06-24T06:52:06.763Z,1003.3
2017-06-24T06:53:08.828Z,1003.4
2017-06-24T06:54:10.904Z,1003.3
2017-06-24T06:55:12.988Z,1003.4
2017-06-24T06:56:15.433Z,1003.4
2017-06-24T06:57:17.708Z,1003.4
2017-06-24T06:58:19.783Z,1003.4
2017-06-24T06:59:21.854Z,1003.4
2017-06-24T07:00:24.273Z,1003.4
2017-06-24T07:01:26.347Z,1003.4
2017-06-24T07:02:28.429Z,1003.3
2017-06-24T07:03:30.507Z,1003.3
2017-06-24T07:04:32.589Z,1003.3
2017-06-24T07:05:35.010Z,1003.3
2017-06-24T07:06:37.088Z,1003.4
2017-06-24T07:07:39.174Z,1003.4
2017-06-24T07:08:41.240Z,1003.3
2017-06-24T07:09:43.324Z,1003.4
2017-06-24T07:10:45.806Z,1003.4
2017-06-24T07:11:48.418Z,1003.3
2017-06-24T07:12:50.515Z,1003.3
2017-06-24T07:13:52.596Z,1003.3
2017-06-24T07:14:54.672Z,1003.4
2017-06-24T07:15:56.747Z,1003.4
2017-06-24T07:16:58.817Z,1003.4
2017-06-24T07:18:00.901Z,1003.5
2017-06-24T07:19:02.952Z,1003.4
2017-06-24T07:20:05.030Z,1003.4
2017-06-24T07:21:07.429Z,1003.4
2017-06-24T07:22:09.532Z,1003.5
2017-06-24T07:23:11.612Z,1003.4
2017-06-24T07:24:13.687Z,1003.4
2017-06-24T07:25:15.760Z,1003.5
2017-06-24T07:26:18.159Z,1003.4
2017-06-24T07:27:20.221Z,1003.4
2017-06-24T07:28:22.316Z,1003.4
2017-06-24T07:29:24.724Z,1003.4
2017-06-24T07:30:26.845Z,1003.4
2017-06-24T07:31:28.931Z,1003.4
2017-06-24T07:32:31.003Z,1003.4
2017-06-24T07:33:33.070Z,1003.4
2017-06-24T07:34:35.152Z,1003.3
2017-06-24T07:35:37.215Z,1003.3
2017-06-24T07:36:39.298Z,1003.3
2017-06-24T07:37:41.357Z,1003.3
2017-06-24T07:38:43.422Z,1003.3
2017-06-24T07:39:45.488Z,1003.3
2017-06-24T07:40:47.574Z,1003.3
2017-06-24T07:41:49.644Z,1003.3
2017-06-24T07:42:51.720Z,1003.3
2017-06-24T07:43:53.781Z,1003.2
2017-06-24T07:44:55.859Z,1003.3
2017-06-24T07:45:57.930Z,1003.2
2017-06-24T07:47:00.336Z,1003.2
2017-06-24T07:48:02.412Z,1003.2
2017-06-24T07:49:04.492Z,1003.2
2017-06-24T07:50:06.563Z,1003.3
2017-06-24T07:51:08.643Z,1003.2
2017-06-24T07:52:11.059Z,1003.3
2017-06-24T07:53:13.134Z,1003.2
2017-06-24T07:54:15.205Z,1003.2
2017-06-24T07:55:17.274Z,1003.2
2017-06-24T07:56:19.345Z,1003.2
2017-06-24T07:57:21.426Z,1003.2
2017-06-24T07:58:23.483Z,1003.1
2017-06-24T07:59:25.560Z,1003.2
2017-06-24T08:00:27.970Z,1003.1
2017-06-24T08:01:30.044Z,1003.2
2017-06-24T08:02:32.110Z,1003.2
2017-06-24T08:03:34.191Z,1003.2
2017-06-24T08:04:36.262Z,1003.2
2017-06-24T08:05:38.337Z,1003.2
2017-06-24T08:06:40.411Z,1003.2
2017-06-24T08:07:42.488Z,1003.2
2017-06-24T08:08:44.552Z,1003.1
2017-06-24T08:09:46.630Z,1003.1
2017-06-24T08:10:48.705Z,1003.1
2017-06-24T08:11:50.779Z,1003.1
2017-06-24T08:12:52.856Z,1003.1
2017-06-24T08:13:54.920Z,1003.1
2017-06-24T08:14:56.991Z,1003.1
2017-06-24T08:15:59.067Z,1003.1
2017-06-24T08:17:01.134Z,1003
2017-06-24T08:18:03.207Z,1003.1
2017-06-24T08:19:05.628Z,1003.1
2017-06-24T08:20:07.713Z,1003
2017-06-24T08:21:10.148Z,1003.1
2017-06-24T08:22:12.223Z,1003.1
2017-06-24T08:23:14.284Z,1003
2017-06-24T08:24:16.697Z,1003.1
2017-06-24T08:25:19.145Z,1003.1
2017-06-24T08:26:21.245Z,1003.1
2017-06-24T08:27:23.345Z,1003
2017-06-24T08:28:25.431Z,1003.1
2017-06-24T08:29:27.550Z,1003
2017-06-24T08:30:29.623Z,1003.1
2017-06-24T08:31:31.693Z,1003.1
2017-06-24T08:32:33.781Z,1003.1
2017-06-24T08:33:35.852Z,1003.1
2017-06-24T08:34:37.920Z,1003.1
2017-06-24T08:35:40.001Z,1003.1
2017-06-24T08:36:42.079Z,1003.1
2017-06-24T08:37:44.491Z,1003.1
2017-06-24T08:38:46.574Z,1003.1
2017-06-24T08:39:48.645Z,1003.1
2017-06-24T08:40:50.724Z,1003.1
2017-06-24T08:41:53.134Z,1003.2
2017-06-24T08:42:55.206Z,1003.1
2017-06-24T08:43:57.307Z,1003.1
2017-06-24T08:44:59.377Z,1003.1
2017-06-24T08:46:01.802Z,1003.1
2017-06-24T08:47:03.882Z,1003
2017-06-24T08:48:05.951Z,1003.1
2017-06-24T08:49:08.015Z,1003.1
2017-06-24T08:50:10.087Z,1003
2017-06-24T08:51:12.170Z,1003
2017-06-24T08:52:14.243Z,1003
2017-06-24T08:53:16.305Z,1003
2017-06-24T08:54:18.579Z,1003.1
2017-06-24T08:55:20.999Z,1003
2017-06-24T08:56:23.081Z,1003
2017-06-24T08:57:25.157Z,1003
2017-06-24T08:58:27.257Z,1003
2017-06-24T08:59:29.345Z,1003
2017-06-24T09:00:31.436Z,1003
2017-06-24T09:01:33.534Z,1003
2017-06-24T09:02:35.649Z,1003.1
2017-06-24T09:03:37.763Z,1003
2017-06-24T09:04:39.849Z,1003
2017-06-24T09:05:41.916Z,1002.9
2017-06-24T09:06:43.992Z,1003
2017-06-24T09:07:46.074Z,1003
2017-06-24T09:08:48.149Z,1002.9
2017-06-24T09:09:50.554Z,1003
2017-06-24T09:10:52.974Z,1003
2017-06-24T09:11:55.070Z,1002.9
2017-06-24T09:12:57.145Z,1003
2017-06-24T09:13:59.219Z,1002.9
2017-06-24T09:15:01.308Z,1002.9
2017-06-24T09:16:03.736Z,1003
2017-06-24T09:17:05.813Z,1002.9
2017-06-24T09:18:08.233Z,1002.9
2017-06-24T09:19:10.306Z,1002.9
2017-06-24T09:20:12.392Z,1003
2017-06-24T09:21:14.823Z,1002.8
2017-06-24T09:22:16.879Z,1002.9
2017-06-24T09:23:19.169Z,1003
2017-06-24T09:24:21.230Z,1003
2017-06-24T09:25:23.302Z,1003
2017-06-24T09:26:25.377Z,1003
2017-06-24T09:27:27.445Z,1003
2017-06-24T09:28:29.532Z,1003
2017-06-24T09:29:31.602Z,1003
2017-06-24T09:30:33.668Z,1003
2017-06-24T09:31:35.752Z,1003
2017-06-24T09:32:37.859Z,1003
2017-06-24T09:33:39.950Z,1003
2017-06-24T09:34:42.047Z,1003
2017-06-24T09:35:44.160Z,1003
2017-06-24T09:36:46.268Z,1003.1
2017-06-24T09:37:48.370Z,1003
2017-06-24T09:38:50.468Z,1003
2017-06-24T09:39:52.553Z,1003.1
2017-06-24T09:40:54.639Z,1003
2017-06-24T09:41:56.708Z,1003
2017-06-24T09:42:59.119Z,1003
2017-06-24T09:44:01.200Z,1002.9
2017-06-24T09:45:03.277Z,1003
2017-06-24T09:46:05.705Z,1003
2017-06-24T09:47:07.777Z,1003
2017-06-24T09:48:09.868Z,1003
2017-06-24T09:49:11.940Z,1003
2017-06-24T09:50:14.002Z,1003
2017-06-24T09:51:16.078Z,1003
2017-06-24T09:52:18.151Z,1003.1
2017-06-24T09:53:20.228Z,1003
2017-06-24T09:54:22.289Z,1003
2017-06-24T09:55:24.710Z,1003
2017-06-24T09:56:26.780Z,1003
2017-06-24T09:57:29.183Z,1003
2017-06-24T09:58:31.257Z,1002.9
2017-06-24T09:59:33.334Z,1002.9
2017-06-24T10:00:35.409Z,1003
2017-06-24T10:01:37.477Z,1002.9
2017-06-24T10:02:39.554Z,1002.9
2017-06-24T10:03:41.637Z,1003
2017-06-24T10:04:43.711Z,1003
2017-06-24T10:05:46.127Z,1003
2017-06-24T10:06:48.203Z,1003
2017-06-24T10:07:50.276Z,1003
2017-06-24T10:08:52.347Z,1003
2017-06-24T10:09:54.428Z,1003
2017-06-24T10:10:56.500Z,1003
2017-06-24T10:11:58.915Z,1003
2017-06-24T10:13:01.324Z,1003.1
2017-06-24T10:14:03.383Z,1003.1
2017-06-24T10:15:05.456Z,1003
2017-06-24T10:16:07.541Z,1003.1
2017-06-24T10:17:09.625Z,1003.1
2017-06-24T10:18:11.704Z,1003
2017-06-24T10:19:13.769Z,1003.2
2017-06-24T10:20:15.854Z,1003.1
2017-06-24T10:21:17.922Z,1003.1
2017-06-24T10:22:19.991Z,1003.1
2017-06-24T10:23:22.087Z,1003.1
2017-06-24T10:24:24.156Z,1003
2017-06-24T10:25:26.222Z,1003
2017-06-24T10:26:28.288Z,1003
2017-06-24T10:27:30.360Z,1003
2017-06-24T10:28:32.440Z,1003
2017-06-24T10:29:34.509Z,1003
2017-06-24T10:30:36.592Z,1002.9
2017-06-24T10:31:38.665Z,1003
2017-06-24T10:32:40.737Z,1003
2017-06-24T10:33:43.149Z,1003
2017-06-24T10:34:45.220Z,1003
2017-06-24T10:35:47.315Z,1003
2017-06-24T10:36:49.389Z,1003
2017-06-24T10:37:51.807Z,1003
2017-06-24T10:38:53.881Z,1003
2017-06-24T10:39:56.299Z,1003.1
2017-06-24T10:40:58.707Z,1003
2017-06-24T10:42:00.779Z,1003
2017-06-24T10:43:02.868Z,1003
2017-06-24T10:44:04.944Z,1003
2017-06-24T10:45:07.005Z,1003
2017-06-24T10:46:09.080Z,1003
2017-06-24T10:47:11.147Z,1003
2017-06-24T10:48:13.231Z,1003
2017-06-24T10:49:15.633Z,1003.1
2017-06-24T10:50:17.703Z,1003
2017-06-24T10:51:19.776Z,1003
2017-06-24T10:52:21.860Z,1003
2017-06-24T10:53:23.927Z,1003
2017-06-24T10:54:26.002Z,1003
2017-06-24T10:55:28.067Z,1003
2017-06-24T10:56:30.153Z,1003
2017-06-24T10:57:32.217Z,1002.9
2017-06-24T10:58:34.291Z,1003
2017-06-24T10:59:36.363Z,1003
2017-06-24T11:00:38.459Z,1003
2017-06-24T11:01:40.523Z,1003
2017-06-24T11:02:42.798Z,1003
2017-06-24T11:03:45.209Z,1003.1
2017-06-24T11:04:47.284Z,1003
2017-06-24T11:05:49.348Z,1003
2017-06-24T11:06:51.428Z,1003
2017-06-24T11:07:53.510Z,1003
2017-06-24T11:08:55.567Z,1003
2017-06-24T11:09:57.640Z,1002.9
2017-06-24T11:10:59.735Z,1003
2017-06-24T11:12:02.508Z,1002.9
2017-06-24T11:13:04.712Z,1002.9
2017-06-24T11:14:06.800Z,1002.9
2017-06-24T11:15:08.893Z,1002.9
2017-06-24T11:16:10.998Z,1002.9
2017-06-24T11:17:13.271Z,1002.9
2017-06-24T11:18:15.388Z,1003
2017-06-24T11:19:17.661Z,1002.8
2017-06-24T11:20:19.721Z,1002.9
2017-06-24T11:21:21.813Z,1002.9
2017-06-24T11:22:23.979Z,1002.9
2017-06-24T11:23:26.066Z,1002.9
2017-06-24T11:24:28.157Z,1002.8
2017-06-24T11:25:30.385Z,1002.9
2017-06-24T11:26:32.484Z,1002.9
2017-06-24T11:27:34.556Z,1002.9
2017-06-24T11:28:36.629Z,1002.9
2017-06-24T11:29:38.714Z,1002.9
2017-06-24T11:30:40.923Z,1002.9
2017-06-24T11:31:43.010Z,1003
2017-06-24T11:32:45.090Z,1002.8
2017-06-24T11:34:44.927Z,1003
2017-06-24T11:35:46.965Z,1003
2017-06-24T11:36:49.375Z,1003
2017-06-24T11:37:51.408Z,1002.9
2017-06-24T11:38:53.441Z,1002.9
2017-06-24T11:39:55.478Z,1003
2017-06-24T11:40:57.512Z,1002.9
2017-06-24T11:41:59.885Z,1002.9
2017-06-24T11:43:02.023Z,1002.9
2017-06-24T11:44:04.700Z,1002.9
2017-06-24T11:45:06.959Z,1002.9
2017-06-24T11:46:09.109Z,1002.9
2017-06-24T11:47:12.346Z,1003
2017-06-24T11:48:16.426Z,1002.9
2017-06-24T11:49:21.621Z,1002.9
2017-06-24T11:50:28.182Z,1003
2017-06-24T11:51:37.579Z,1002.9
2017-06-24T11:52:44.577Z,1002.9
2017-06-24T11:53:48.924Z,1002.7
2017-06-24T11:54:52.646Z,1003
2017-06-24T11:55:55.541Z,1002.9
2017-06-24T11:56:58.765Z,1002.9
2017-06-24T11:58:04.116Z,1002.8
2017-06-24T11:59:07.137Z,1002.9
2017-06-24T12:00:09.584Z,1002.9
2017-06-24T12:01:12.216Z,1002.9
2017-06-24T12:02:14.994Z,1003
2017-06-24T12:03:17.461Z,1003
2017-06-24T12:04:20.334Z,1003
2017-06-24T12:05:23.298Z,1003
2017-06-24T12:06:25.893Z,1002.9
2017-06-24T12:07:29.498Z,1002.9
2017-06-24T12:08:32.217Z,1002.9
2017-06-24T12:09:34.778Z,1002.8
2017-06-24T12:10:37.239Z,1002.9
2017-06-24T12:11:39.653Z,1003
2017-06-24T12:12:42.935Z,1002.9
2017-06-24T12:13:45.296Z,1002.8
2017-06-24T12:14:47.669Z,1002.9
2017-06-24T12:15:50.277Z,1002.9
2017-06-24T12:16:52.639Z,1002.9
2017-06-24T12:17:55.456Z,1003
2017-06-24T12:18:58.015Z,1002.9
2017-06-24T12:20:00.308Z,1002.9
2017-06-24T12:21:02.473Z,1003
2017-06-24T12:22:04.998Z,1002.9
2017-06-24T12:23:08.030Z,1002.8
2017-06-24T12:24:11.194Z,1003
2017-06-24T12:25:13.638Z,1002.8
2017-06-24T12:26:16.061Z,1002.9
2017-06-24T12:27:21.122Z,1003
2017-06-24T12:28:25.927Z,1002.9
2017-06-24T12:29:31.537Z,1002.9
2017-06-24T12:30:35.530Z,1002.9
2017-06-24T12:31:39.394Z,1002.8
2017-06-24T12:32:43.615Z,1003
2017-06-24T12:33:50.419Z,1002.8
2017-06-24T12:34:53.850Z,1002.8
2017-06-24T12:35:56.090Z,1002.9
2017-06-24T12:36:58.124Z,1002.7
2017-06-24T12:38:00.154Z,1002.9
2017-06-24T12:39:02.186Z,1002.8
2017-06-24T12:40:04.568Z,1002.8
2017-06-24T12:41:06.936Z,1002.8
2017-06-24T12:42:08.971Z,1002.9
2017-06-24T12:43:10.995Z,1002.8
2017-06-24T12:44:13.026Z,1002.9
2017-06-24T12:45:15.063Z,1002.8
2017-06-24T12:46:17.090Z,1002.9
2017-06-24T12:47:19.115Z,1002.9
2017-06-24T12:48:21.149Z,1002.9
2017-06-24T12:49:23.178Z,1002.9
2017-06-24T12:50:25.213Z,1003
2017-06-24T12:51:27.254Z,1002.8
2017-06-24T12:52:29.284Z,1002.8
2017-06-24T12:53:31.337Z,1002.8
2017-06-24T12:54:33.360Z,1002.8
2017-06-24T12:55:35.393Z,1003
2017-06-24T12:56:37.426Z,1003
2017-06-24T12:57:39.454Z,1002.9
2017-06-24T12:58:41.483Z,1002.9
2017-06-24T12:59:43.525Z,1002.9
2017-06-24T13:00:45.889Z,1002.8
2017-06-24T13:01:48.265Z,1002.7
2017-06-24T13:02:50.292Z,1002.8
2017-06-24T13:03:52.660Z,1002.8
2017-06-24T13:04:54.692Z,1002.8
2017-06-24T13:05:57.070Z,1003
2017-06-24T13:06:59.094Z,1002.8
2017-06-24T13:08:01.808Z,1002.9
2017-06-24T13:09:03.869Z,1002.9